createdAt,value
2018-09-12T00:01:47.749Z,8.23
2018-09-12T00:04:16.290Z,8.57
2018-09-12T00:06:44.864Z,9.07
2018-09-12T00:09:13.405Z,9.13
2018-09-12T00:11:41.995Z,9.27
2018-09-12T00:14:10.579Z,10.00
2018-09-12T00:16:39.092Z,9.13
2018-09-12T00:19:08.185Z,9.47
2018-09-12T00:21:37.187Z,9.07
2018-09-12T00:24:06.342Z,9.50
2018-09-12T00:26:34.984Z,9.20
2018-09-12T00:29:03.523Z,9.60
2018-09-12T00:31:32.039Z,9.67
2018-09-12T00:34:00.600Z,9.80
2018-09-12T00:36:29.136Z,10.37
2018-09-12T00:38:57.691Z,10.50
2018-09-12T00:41:26.217Z,10.10
2018-09-12T00:43:54.906Z,10.40
2018-09-12T00:46:23.440Z,9.87
2018-09-12T00:48:51.958Z,10.13
2018-09-12T00:51:20.513Z,9.80
2018-09-12T00:53:49.063Z,9.93
2018-09-12T00:56:17.864Z,9.60
2018-09-12T00:58:46.428Z,9.10
2018-09-12T01:01:14.941Z,9.57
2018-09-12T01:03:43.488Z,9.60
2018-09-12T01:06:12.071Z,9.60
2018-09-12T01:08:40.599Z,9.03
2018-09-12T01:11:09.113Z,9.37
2018-09-12T01:13:37.662Z,9.30
2018-09-12T01:16:06.208Z,9.63
2018-09-12T01:18:34.752Z,9.87
2018-09-12T01:21:03.313Z,9.20
2018-09-12T01:23:32.123Z,8.90
2018-09-12T01:26:00.640Z,10.30
2018-09-12T01:28:29.167Z,10.20
2018-09-12T01:30:57.711Z,10.43
2018-09-12T01:33:26.260Z,10.23
2018-09-12T01:35:54.800Z,10.83
2018-09-12T01:38:23.339Z,10.93
2018-09-12T01:40:51.902Z,10.70
2018-09-12T01:43:20.472Z,10.03
2018-09-12T01:45:48.993Z,9.70
2018-09-12T01:48:18.223Z,9.63
2018-09-12T01:50:46.840Z,10.60
2018-09-12T01:53:15.389Z,10.60
2018-09-12T01:55:44.144Z,10.30
2018-09-12T01:58:12.678Z,10.77
2018-09-12T02:00:42.218Z,11.00
2018-09-12T02:03:11.321Z,10.43
2018-09-12T02:05:40.104Z,11.50
2018-09-12T02:08:08.907Z,11.57
2018-09-12T02:10:37.688Z,11.80
2018-09-12T02:13:06.278Z,11.60
2018-09-12T02:15:34.820Z,10.93
2018-09-12T02:18:03.380Z,11.60
2018-09-12T02:20:31.924Z,10.90
2018-09-12T02:23:00.454Z,10.53
2018-09-12T02:25:29.101Z,11.07
2018-09-12T02:27:57.944Z,10.83
2018-09-12T02:30:26.464Z,10.93
2018-09-12T02:32:54.985Z,10.43
2018-09-12T02:35:23.563Z,9.80
2018-09-12T02:37:52.078Z,11.00
2018-09-12T02:40:20.623Z,10.40
2018-09-12T02:42:49.146Z,10.10
2018-09-12T02:45:17.872Z,10.07
2018-09-12T02:47:46.682Z,10.27
2018-09-12T02:50:15.284Z,10.67
2018-09-12T02:52:43.851Z,11.27
2018-09-12T02:55:13.411Z,10.30
2018-09-12T02:57:42.158Z,10.33
2018-09-12T03:00:10.988Z,10.70
2018-09-12T03:02:39.571Z,10.27
2018-09-12T03:05:08.172Z,9.70
2018-09-12T03:07:36.735Z,11.00
2018-09-12T03:10:06.397Z,10.80
2018-09-12T03:12:35.001Z,11.53
2018-09-12T03:15:03.559Z,10.97
2018-09-12T03:17:32.081Z,11.67
2018-09-12T03:20:00.649Z,11.30
2018-09-12T03:22:29.175Z,10.77
2018-09-12T03:24:57.705Z,11.13
2018-09-12T03:27:26.296Z,11.70
2018-09-12T03:29:54.839Z,10.90
2018-09-12T03:32:23.395Z,11.30
2018-09-12T03:34:52.187Z,10.60
2018-09-12T03:37:20.717Z,11.60
2018-09-12T03:39:49.232Z,11.07
2018-09-12T03:42:17.779Z,11.30
2018-09-12T03:44:46.297Z,11.53
2018-09-12T03:47:15.021Z,12.33
2018-09-12T03:49:43.542Z,11.50
2018-09-12T03:52:12.090Z,11.27
2018-09-12T03:54:40.617Z,11.37
2018-09-12T03:57:09.166Z,12.20
2018-09-12T03:59:37.684Z,11.67
2018-09-12T04:02:06.398Z,12.70
2018-09-12T04:04:35.001Z,11.93
2018-09-12T04:07:03.590Z,12.00
2018-09-12T04:09:32.114Z,12.13
2018-09-12T04:12:00.897Z,12.40
2018-09-12T04:14:29.432Z,12.80
2018-09-12T04:16:57.979Z,11.57
2018-09-12T04:19:26.512Z,12.07
2018-09-12T04:21:55.064Z,11.83
2018-09-12T04:24:23.700Z,12.30
2018-09-12T04:26:52.140Z,12.03
2018-09-12T04:29:20.780Z,12.13
2018-09-12T04:31:49.327Z,12.10
2018-09-12T04:34:18.038Z,12.17
2018-09-12T04:36:46.545Z,12.63
2018-09-12T04:39:15.056Z,12.23
2018-09-12T04:41:43.755Z,11.90
2018-09-12T04:44:12.258Z,12.87
2018-09-12T04:46:40.820Z,12.10
2018-09-12T04:49:09.419Z,12.43
2018-09-12T04:51:37.929Z,11.97
2018-09-12T04:54:06.783Z,12.90
2018-09-12T04:56:35.299Z,12.17
2018-09-12T04:59:03.872Z,11.93
2018-09-12T05:01:32.427Z,11.20
2018-09-12T05:04:00.969Z,11.03
2018-09-12T05:06:29.501Z,11.83
2018-09-12T05:08:58.034Z,11.63
2018-09-12T05:11:26.576Z,11.63
2018-09-12T05:13:55.088Z,11.20
2018-09-12T05:16:23.598Z,10.97
2018-09-12T05:18:52.382Z,11.27
2018-09-12T05:21:20.941Z,11.33
2018-09-12T05:23:49.454Z,11.30
2018-09-12T05:26:18.025Z,11.60
2018-09-12T05:28:46.543Z,10.70
2018-09-12T05:31:15.179Z,10.87
2018-09-12T05:33:43.715Z,11.50
2018-09-12T05:36:12.597Z,11.37
2018-09-12T05:38:41.271Z,11.87
2018-09-12T05:41:09.848Z,12.00
2018-09-12T05:43:39.072Z,12.00
2018-09-12T05:46:07.594Z,10.70
2018-09-12T05:48:36.250Z,11.47
2018-09-12T05:51:04.969Z,11.50
2018-09-12T05:53:33.736Z,10.50
2018-09-12T05:56:02.652Z,9.30
2018-09-12T05:58:31.175Z,9.77
2018-09-12T06:00:59.704Z,10.30
2018-09-12T06:03:28.412Z,9.60
2018-09-12T06:05:56.988Z,10.10
2018-09-12T06:08:25.559Z,10.67
2018-09-12T06:10:54.074Z,10.70
2018-09-12T06:13:22.633Z,10.87
2018-09-12T06:15:51.536Z,10.93
2018-09-12T06:18:20.428Z,10.37
2018-09-12T06:20:49.008Z,10.27
2018-09-12T06:23:17.706Z,9.50
2018-09-12T06:25:46.258Z,10.03
2018-09-12T06:28:15.190Z,9.53
2018-09-12T06:30:44.119Z,9.60
2018-09-12T06:33:12.708Z,9.50
2018-09-12T06:35:41.475Z,9.93
2018-09-12T06:38:10.028Z,10.13
2018-09-12T06:40:38.582Z,9.80
2018-09-12T06:43:07.997Z,10.10
2018-09-12T06:45:36.565Z,9.23
2018-09-12T06:48:05.407Z,10.60
2018-09-12T06:50:34.700Z,9.43
2018-09-12T06:53:04.236Z,9.10
2018-09-12T06:55:33.175Z,8.97
2018-09-12T06:58:01.896Z,8.73
2018-09-12T07:00:30.568Z,8.83
2018-09-12T07:02:59.084Z,8.20
2018-09-12T07:05:27.611Z,8.30
2018-09-12T07:07:56.197Z,7.70
2018-09-12T07:10:24.768Z,7.37
2018-09-12T07:12:53.645Z,7.50
2018-09-12T07:15:22.180Z,7.00
2018-09-12T07:17:50.815Z,7.03
2018-09-12T07:20:19.509Z,6.73
2018-09-12T07:22:48.045Z,6.43
2018-09-12T07:25:16.625Z,6.60
2018-09-12T07:27:45.172Z,6.57
2018-09-12T07:30:13.767Z,6.60
2018-09-12T07:32:42.755Z,6.43
2018-09-12T07:35:11.346Z,6.50
2018-09-12T07:37:39.903Z,6.40
2018-09-12T07:40:08.536Z,6.13
2018-09-12T07:42:38.179Z,6.53
2018-09-12T07:45:07.258Z,6.03
2018-09-12T07:47:35.931Z,6.47
2018-09-12T07:50:04.645Z,6.27
2018-09-12T07:52:33.307Z,6.70
2018-09-12T07:55:02.465Z,6.60
2018-09-12T07:57:31.461Z,6.50
2018-09-12T08:00:00.142Z,6.67
2018-09-12T08:02:29.143Z,6.20
2018-09-12T08:04:57.735Z,6.60
2018-09-12T08:07:26.428Z,5.97
2018-09-12T08:09:55.671Z,5.90
2018-09-12T08:12:24.301Z,5.60
2018-09-12T08:14:53.389Z,6.10
2018-09-12T08:17:22.151Z,6.40
2018-09-12T08:19:50.652Z,5.53
2018-09-12T08:22:19.225Z,5.90
2018-09-12T08:24:48.037Z,5.93
2018-09-12T08:27:16.587Z,5.63
2018-09-12T08:29:45.341Z,5.93
2018-09-12T08:32:14.840Z,5.53
2018-09-12T08:34:43.570Z,5.83
2018-09-12T08:37:12.137Z,5.93
2018-09-12T08:39:40.674Z,5.50
2018-09-12T08:42:09.814Z,5.57
2018-09-12T08:44:38.572Z,5.43
2018-09-12T08:47:07.389Z,5.43
2018-09-12T08:49:37.995Z,5.80
2018-09-12T08:52:06.945Z,5.20
2018-09-12T08:54:35.520Z,5.53
2018-09-12T08:57:04.129Z,5.37
2018-09-12T08:59:32.728Z,5.60
2018-09-12T09:02:01.353Z,5.10
2018-09-12T09:04:29.892Z,5.40
2018-09-12T09:06:58.585Z,4.93
2018-09-12T09:09:27.187Z,4.90
2018-09-12T09:11:55.743Z,5.20
2018-09-12T09:14:24.589Z,4.93
2018-09-12T09:16:53.143Z,4.80
2018-09-12T09:19:21.705Z,4.87
2018-09-12T09:21:50.420Z,5.00
2018-09-12T09:24:18.997Z,5.10
2018-09-12T09:26:47.506Z,4.93
2018-09-12T09:29:16.377Z,5.20
2018-09-12T09:31:44.910Z,5.00
2018-09-12T09:34:13.458Z,4.90
2018-09-12T09:36:42.403Z,4.60
2018-09-12T09:39:12.145Z,4.57
2018-09-12T09:41:41.353Z,4.60
2018-09-12T09:44:10.029Z,5.10
2018-09-12T09:46:38.566Z,5.23
2018-09-12T09:49:07.176Z,4.93
2018-09-12T09:51:35.719Z,4.83
2018-09-12T09:54:04.239Z,4.77
2018-09-12T09:56:32.777Z,4.60
2018-09-12T09:59:01.392Z,5.00
2018-09-12T10:01:35.355Z,5.00
2018-09-12T10:04:09.242Z,4.80
2018-09-12T10:06:43.174Z,5.07
2018-09-12T10:09:17.157Z,4.77
2018-09-12T10:11:45.716Z,4.90
2018-09-12T10:14:14.266Z,4.90
2018-09-12T10:16:42.832Z,5.00
2018-09-12T10:19:11.429Z,4.43
2018-09-12T10:21:40.019Z,4.43
2018-09-12T10:24:09.022Z,4.87
2018-09-12T10:26:37.690Z,5.47
2018-09-12T10:29:06.324Z,4.70
2018-09-12T10:31:35.363Z,4.67
2018-09-12T10:34:03.924Z,4.50
2018-09-12T10:36:32.491Z,4.50
2018-09-12T10:39:01.587Z,4.60
2018-09-12T10:41:30.153Z,4.10
2018-09-12T10:43:58.946Z,4.30
2018-09-12T10:46:27.533Z,4.77
2018-09-12T10:48:56.101Z,4.47
2018-09-12T10:51:24.635Z,4.33
2018-09-12T10:53:53.175Z,4.17
2018-09-12T10:56:21.705Z,4.28
2018-09-12T10:58:50.356Z,4.20
2018-09-12T11:01:18.955Z,4.05
2018-09-12T11:03:48.765Z,4.40
2018-09-12T11:06:17.329Z,4.10
2018-09-12T11:08:45.873Z,4.28
2018-09-12T11:11:14.414Z,3.95
2018-09-12T11:13:43.020Z,3.55
2018-09-12T11:16:12.622Z,4.00
2018-09-12T11:18:41.404Z,4.12
2018-09-12T11:21:10.024Z,3.83
2018-09-12T11:23:38.581Z,3.80
2018-09-12T11:26:07.608Z,4.15
2018-09-12T11:28:37.146Z,4.20
2018-09-12T11:31:07.074Z,3.85
2018-09-12T11:33:35.660Z,3.98
2018-09-12T11:36:04.443Z,3.92
2018-09-12T11:38:33.347Z,3.95
2018-09-12T11:41:02.739Z,3.80
2018-09-12T11:43:31.513Z,3.60
2018-09-12T11:46:00.332Z,3.98
2018-09-12T11:48:28.999Z,4.10
2018-09-12T11:50:57.696Z,3.40
2018-09-12T11:53:26.296Z,3.80
2018-09-12T11:55:54.860Z,4.40
2018-09-12T11:58:23.405Z,3.98
2018-09-12T12:00:52.111Z,4.10
2018-09-12T12:03:20.651Z,3.62
2018-09-12T12:05:49.207Z,4.78
2018-09-12T12:08:17.711Z,3.72
2018-09-12T12:10:46.249Z,3.47
2018-09-12T12:13:14.756Z,3.58
2018-09-12T12:15:43.287Z,3.80
2018-09-12T12:18:11.818Z,3.70
2018-09-12T12:20:40.370Z,3.52
2018-09-12T12:23:08.931Z,3.87
2018-09-12T12:25:37.476Z,3.98
2018-09-12T12:28:06.302Z,3.70
2018-09-12T12:30:34.843Z,3.72
2018-09-12T12:33:03.361Z,3.60
2018-09-12T12:35:31.976Z,3.50
2018-09-12T12:38:00.420Z,3.35
2018-09-12T12:40:28.965Z,3.60
2018-09-12T12:42:57.485Z,3.40
2018-09-12T12:45:26.032Z,3.50
2018-09-12T12:47:54.544Z,3.50
2018-09-12T12:50:23.070Z,3.42
2018-09-12T12:52:51.624Z,3.12
2018-09-12T12:55:20.160Z,3.20
2018-09-12T12:57:48.665Z,3.60
2018-09-12T13:00:17.236Z,3.30
2018-09-12T13:02:45.739Z,3.52
2018-09-12T13:05:14.446Z,3.50
2018-09-12T13:07:43.036Z,2.90
2018-09-12T13:10:11.533Z,3.50
2018-09-12T13:12:40.081Z,3.27
2018-09-12T13:15:08.665Z,3.30
2018-09-12T13:17:37.211Z,3.30
2018-09-12T13:20:06.204Z,3.67
2018-09-12T13:22:34.838Z,3.67
2018-09-12T13:25:03.429Z,3.80
2018-09-12T13:27:32.045Z,3.20
2018-09-12T13:30:00.523Z,3.20
2018-09-12T13:32:29.124Z,2.95
2018-09-12T13:34:57.647Z,3.52
2018-09-12T13:37:26.197Z,3.50
2018-09-12T13:39:54.732Z,3.75
2018-09-12T13:42:23.239Z,3.52
2018-09-12T13:44:51.790Z,3.30
2018-09-12T13:47:20.292Z,3.52
2018-09-12T13:49:48.812Z,3.50
2018-09-12T13:52:17.956Z,3.67
2018-09-12T13:54:46.472Z,3.58
2018-09-12T13:57:14.991Z,3.30
2018-09-12T13:59:43.528Z,3.70
2018-09-12T14:02:12.072Z,3.35
2018-09-12T14:04:40.582Z,3.40
2018-09-12T14:07:09.126Z,3.70
2018-09-12T14:09:37.609Z,4.00
2018-09-12T14:12:06.142Z,3.80
2018-09-12T14:14:34.885Z,3.52
2018-09-12T14:17:03.465Z,3.80
2018-09-12T14:19:32.137Z,3.70
2018-09-12T14:22:00.638Z,3.42
2018-09-12T14:24:29.156Z,3.67
2018-09-12T14:26:57.680Z,3.67
2018-09-12T14:29:26.176Z,3.37
2018-09-12T14:31:54.716Z,3.20
2018-09-12T14:34:23.272Z,3.55
2018-09-12T14:36:51.882Z,3.90
2018-09-12T14:39:20.441Z,3.77
2018-09-12T14:41:48.965Z,3.50
2018-09-12T14:44:17.497Z,3.10
2018-09-12T14:46:46.032Z,3.20
2018-09-12T14:49:14.543Z,3.80
2018-09-12T14:51:43.064Z,3.47
2018-09-12T14:54:11.605Z,3.10
2018-09-12T14:56:40.329Z,3.45
2018-09-12T14:59:09.014Z,3.70
2018-09-12T15:01:37.892Z,3.47
2018-09-12T15:04:06.513Z,3.62
2018-09-12T15:06:35.081Z,3.80
2018-09-12T15:09:05.227Z,3.55
2018-09-12T15:11:33.732Z,4.35
2018-09-12T15:14:02.282Z,3.80
2018-09-12T15:16:30.817Z,4.20
2018-09-12T15:18:59.362Z,3.92
2018-09-12T15:21:27.879Z,4.08
2018-09-12T15:23:56.447Z,4.10
2018-09-12T15:26:25.001Z,4.00
2018-09-12T15:28:53.575Z,3.77
2018-09-12T15:31:22.233Z,4.10
2018-09-12T15:33:50.802Z,4.05
2018-09-12T15:36:19.474Z,3.95
2018-09-12T15:38:48.039Z,4.45
2018-09-12T15:41:17.091Z,4.15
2018-09-12T15:43:51.151Z,4.12
2018-09-12T15:46:21.445Z,4.10
2018-09-12T15:48:50.013Z,3.70
2018-09-12T15:51:18.551Z,3.95
2018-09-12T15:53:47.074Z,4.30
2018-09-12T15:56:15.573Z,4.30
2018-09-12T15:58:44.126Z,4.40
2018-09-12T16:01:12.636Z,4.50
2018-09-12T16:03:42.090Z,4.03
2018-09-12T16:06:10.590Z,4.12
2018-09-12T16:08:39.121Z,4.12
2018-09-12T16:11:07.642Z,4.08
2018-09-12T16:13:36.217Z,4.20
2018-09-12T16:16:04.724Z,4.22
2018-09-12T16:18:33.357Z,4.25
2018-09-12T16:21:01.872Z,4.20
2018-09-12T16:23:30.461Z,4.55
2018-09-12T16:25:58.963Z,4.10
2018-09-12T16:28:27.507Z,4.53
2018-09-12T16:30:56.021Z,4.10
2018-09-12T16:33:24.570Z,4.35
2018-09-12T16:35:53.089Z,4.22
2018-09-12T16:38:21.626Z,4.35
2018-09-12T16:40:50.160Z,3.92
2018-09-12T16:43:18.660Z,4.40
2018-09-12T16:45:47.398Z,4.47
2018-09-12T16:48:15.917Z,4.10
2018-09-12T16:50:44.511Z,4.50
2018-09-12T16:53:12.992Z,4.28
2018-09-12T16:55:41.485Z,4.28
2018-09-12T16:58:10.052Z,4.10
2018-09-12T17:00:38.656Z,4.10
2018-09-12T17:03:07.198Z,4.47
2018-09-12T17:05:35.727Z,4.55
2018-09-12T17:08:04.275Z,4.80
2018-09-12T17:10:32.796Z,4.72
2018-09-12T17:13:01.341Z,4.70
2018-09-12T17:15:29.878Z,4.78
2018-09-12T17:17:58.470Z,4.87
2018-09-12T17:20:26.991Z,4.75
2018-09-12T17:22:55.571Z,4.80
2018-09-12T17:25:24.116Z,4.47
2018-09-12T17:27:52.688Z,4.30
2018-09-12T17:30:21.188Z,4.50
2018-09-12T17:32:49.716Z,4.50
2018-09-12T17:35:18.253Z,5.20
2018-09-12T17:37:46.877Z,4.90
2018-09-12T17:40:15.429Z,4.67
2018-09-12T17:42:44.006Z,5.03
2018-09-12T17:45:12.539Z,5.10
2018-09-12T17:47:43.866Z,5.20
2018-09-12T17:50:12.423Z,5.17
2018-09-12T17:52:40.929Z,5.13
2018-09-12T17:55:09.476Z,4.93
2018-09-12T17:57:37.981Z,5.77
2018-09-12T18:00:06.909Z,5.53
2018-09-12T18:02:35.432Z,5.60
2018-09-12T18:05:04.064Z,6.10
2018-09-12T18:07:32.567Z,6.53
2018-09-12T18:10:01.124Z,6.20
2018-09-12T18:12:29.648Z,5.93
2018-09-12T18:14:58.192Z,5.00
2018-09-12T18:17:26.742Z,9.97
2018-09-12T18:19:55.270Z,6.40
2018-09-12T18:22:23.800Z,7.20
2018-09-12T18:24:52.595Z,6.37
2018-09-12T18:27:21.103Z,6.07
2018-09-12T18:29:49.623Z,6.00
2018-09-12T18:32:18.151Z,6.37
2018-09-12T18:34:46.683Z,6.77
2018-09-12T18:37:15.220Z,6.47
2018-09-12T18:39:43.760Z,6.57
2018-09-12T18:42:12.293Z,6.73
2018-09-12T18:44:40.842Z,7.20
2018-09-12T18:47:09.410Z,7.33
2018-09-12T18:49:37.999Z,7.53
2018-09-12T18:52:06.593Z,6.23
2018-09-12T18:54:35.128Z,6.20
2018-09-12T18:57:03.689Z,6.20
2018-09-12T18:59:32.229Z,6.00
2018-09-12T19:02:02.066Z,5.90
2018-09-12T19:04:30.675Z,6.07
2018-09-12T19:06:59.287Z,6.23
2018-09-12T19:09:27.775Z,6.60
2018-09-12T19:11:56.303Z,6.30
2018-09-12T19:14:24.820Z,6.20
2018-09-12T19:16:53.374Z,5.83
2018-09-12T19:19:21.919Z,6.33
2018-09-12T19:21:50.446Z,6.47
2018-09-12T19:24:18.945Z,6.07
2018-09-12T19:26:47.770Z,6.10
2018-09-12T19:29:16.308Z,6.03
2018-09-12T19:31:44.809Z,6.50
2018-09-12T19:34:13.337Z,6.70
2018-09-12T19:36:41.861Z,6.60
2018-09-12T19:39:10.913Z,6.50
2018-09-12T19:41:40.195Z,6.87
2018-09-12T19:44:19.093Z,6.37
2018-09-12T19:46:47.622Z,6.60
2018-09-12T19:49:16.321Z,6.50
2018-09-12T19:51:44.833Z,6.53
2018-09-12T19:54:13.604Z,6.70
2018-09-12T19:56:42.402Z,6.63
2018-09-12T19:59:10.904Z,6.50
2018-09-12T20:01:39.434Z,6.20
2018-09-12T20:04:08.236Z,5.70
2018-09-12T20:06:36.767Z,6.77
2018-09-12T20:09:07.692Z,6.60
2018-09-12T20:11:36.357Z,6.80
2018-09-12T20:14:04.874Z,6.80
2018-09-12T20:16:33.419Z,6.53
2018-09-12T20:19:01.911Z,6.97
2018-09-12T20:21:30.510Z,6.73
2018-09-12T20:23:59.209Z,6.90
2018-09-12T20:26:27.601Z,6.87
2018-09-12T20:28:56.133Z,6.80
2018-09-12T20:31:24.720Z,6.83
2018-09-12T20:33:53.342Z,7.27
2018-09-12T20:36:21.872Z,7.13
2018-09-12T20:38:50.389Z,8.00
2018-09-12T20:41:18.933Z,8.23
2018-09-12T20:43:47.444Z,7.87
2018-09-12T20:46:15.970Z,7.57
2018-09-12T20:48:44.855Z,7.80
2018-09-12T20:51:13.695Z,8.20
2018-09-12T20:53:42.195Z,8.10
2018-09-12T20:56:10.719Z,7.17
2018-09-12T20:58:39.285Z,7.03
2018-09-12T21:01:07.884Z,7.93
2018-09-12T21:03:36.404Z,7.17
2018-09-12T21:06:05.641Z,7.00
2018-09-12T21:08:35.312Z,7.43
2018-09-12T21:11:04.869Z,7.43
2018-09-12T21:13:34.312Z,7.53
2018-09-12T21:16:04.895Z,7.03
2018-09-12T21:18:34.808Z,7.33
2018-09-12T21:21:03.375Z,7.90
2018-09-12T21:23:32.128Z,7.30
2018-09-12T21:26:00.670Z,7.80
2018-09-12T21:28:29.211Z,7.00
2018-09-12T21:30:57.988Z,7.47
2018-09-12T21:33:49.663Z,7.40
2018-09-12T21:36:18.215Z,6.97
2018-09-12T21:38:46.725Z,7.60
2018-09-12T21:41:16.709Z,7.47
2018-09-12T21:43:45.232Z,7.77
2018-09-12T21:46:13.977Z,7.33
2018-09-12T21:48:42.629Z,7.43
2018-09-12T21:51:11.171Z,7.20
2018-09-12T21:53:39.690Z,6.97
2018-09-12T21:56:08.259Z,7.00
2018-09-12T21:58:36.777Z,7.50
2018-09-12T22:01:05.403Z,7.63
2018-09-12T22:03:34.139Z,7.00
2018-09-12T22:06:02.742Z,7.57
2018-09-12T22:08:31.524Z,7.33
2018-09-12T22:11:00.048Z,7.17
2018-09-12T22:13:28.607Z,7.57
2018-09-12T22:15:57.158Z,7.43
2018-09-12T22:18:25.738Z,7.93
2018-09-12T22:20:55.093Z,8.10
2018-09-12T22:23:23.666Z,7.67
2018-09-12T22:25:52.243Z,8.30
2018-09-12T22:28:20.775Z,7.77
2018-09-12T22:30:49.270Z,8.30
2018-09-12T22:33:17.810Z,7.90
2018-09-12T22:35:46.326Z,8.10
2018-09-12T22:38:15.092Z,8.07
2018-09-12T22:40:43.598Z,8.07
2018-09-12T22:43:12.132Z,7.77
2018-09-12T22:45:40.682Z,8.10
2018-09-12T22:48:09.213Z,7.63
2018-09-12T22:50:37.719Z,7.70
2018-09-12T22:53:06.249Z,8.00
2018-09-12T22:55:34.770Z,8.27
2018-09-12T22:58:03.753Z,8.10
2018-09-12T23:00:32.330Z,8.00
2018-09-12T23:03:00.875Z,8.00
2018-09-12T23:05:29.562Z,7.40
2018-09-12T23:07:58.103Z,7.90
2018-09-12T23:10:26.646Z,7.90
2018-09-12T23:12:55.324Z,7.93
2018-09-12T23:15:23.882Z,8.90
2018-09-12T23:17:52.903Z,8.17
2018-09-12T23:20:21.421Z,8.60
2018-09-12T23:22:50.012Z,8.07
2018-09-12T23:25:18.552Z,8.60
2018-09-12T23:27:47.091Z,8.23
2018-09-12T23:30:15.670Z,8.07
2018-09-12T23:32:44.241Z,8.97
2018-09-12T23:35:12.841Z,8.30
2018-09-12T23:37:41.507Z,8.77
2018-09-12T23:40:10.104Z,9.37
2018-09-12T23:42:38.784Z,9.50
2018-09-12T23:45:07.426Z,9.23
2018-09-12T23:47:35.965Z,9.63
2018-09-12T23:50:04.799Z,9.47
2018-09-12T23:52:33.468Z,9.30
2018-09-12T23:55:03.156Z,9.80
2018-09-12T23:57:31.705Z,9.67
